sensor_id;sensor_type;location;lat;lon;timestamp;pressure;altitude;pressure_sealevel;temperature;humidity
51526;BME280;37611;51.794;21.590;2024-01-15T00:02:59;97912.67;;;0.24;100.00
51526;BME280;37611;51.794;21.590;2024-01-15T00:07:01;97904.93;;;0.26;100.00
51526;BME280;37611;51.794;21.590;2024-01-15T00:11:03;97896.94;;;0.27;100.00
51526;BME280;37611;51.794;21.590;2024-01-15T00:15:05;97893.16;;;0.28;100.00
51526;BME280;37611;51.794;21.590;2024-01-15T00:19:07;97891.42;;;0.27;100.00
51526;BME280;37611;51.794;21.590;2024-01-15T00:23:09;97879.60;;;0.26;100.00
51526;BME280;37611;51.794;21.590;2024-01-15T00:27:11;97869.63;;;0.24;100.00
51526;BME280;37611;51.794;21.590;2024-01-15T00:31:16;97866.27;;;0.21;100.00
51526;BME280;37611;51.794;21.590;2024-01-15T00:35:18;97862.82;;;0.19;100.00
51526;BME280;37611;51.794;21.590;2024-01-15T00:39:20;97850.16;;;0.19;100.00
51526;BME280;37611;51.794;21.590;2024-01-15T00:43:22;97847.66;;;0.16;100.00
51526;BME280;37611;51.794;21.590;2024-01-15T00:47:23;97842.80;;;0.16;100.00
51526;BME280;37611;51.794;21.590;2024-01-15T00:51:25;97844.35;;;0.16;100.00
51526;BME280;37611;51.794;21.590;2024-01-15T00:55:29;97835.68;;;0.19;100.00
51526;BME280;37611;51.794;21.590;2024-01-15T00:59:34;97832.05;;;0.15;100.00
51526;BME280;37611;51.794;21.590;2024-01-15T01:03:39;97823.80;;;0.15;100.00
51526;BME280;37611;51.794;21.590;2024-01-15T01:07:41;97823.65;;;0.17;100.00
51526;BME280;37611;51.794;21.590;2024-01-15T01:11:43;97824.25;;;0.14;100.00
51526;BME280;37611;51.794;21.590;2024-01-15T01:15:45;97815.48;;;0.14;100.00
51526;BME280;37611;51.794;21.590;2024-01-15T01:19:46;97810.20;;;0.13;100.00
51526;BME280;37611;51.794;21.590;2024-01-15T01:23:48;97804.27;;;0.14;100.00
51526;BME280;37611;51.794;21.590;2024-01-15T01:27:50;97795.80;;;0.11;100.00
51526;BME280;37611;51.794;21.590;2024-01-15T01:31:52;97780.77;;;0.10;100.00
51526;BME280;37611;51.794;21.590;2024-01-15T01:35:53;97773.87;;;0.06;100.00
51526;BME280;37611;51.794;21.590;2024-01-15T01:39:55;97770.15;;;0.06;100.00
51526;BME280;37611;51.794;21.590;2024-01-15T01:43:57;97768.73;;;0.06;100.00
51526;BME280;37611;51.794;21.590;2024-01-15T01:48:00;97763.89;;;0.02;100.00
51526;BME280;37611;51.794;21.590;2024-01-15T01:52:03;97764.51;;;0.01;100.00
51526;BME280;37611;51.794;21.590;2024-01-15T01:56:07;97762.45;;;-0.01;100.00
51526;BME280;37611;51.794;21.590;2024-01-15T02:00:10;97765.39;;;-0.03;100.00
51526;BME280;37611;51.794;21.590;2024-01-15T02:04:12;97761.34;;;-0.02;100.00
51526;BME280;37611;51.794;21.590;2024-01-15T02:08:14;97760.07;;;-0.05;100.00
51526;BME280;37611;51.794;21.590;2024-01-15T02:12:16;97756.64;;;-0.10;100.00
51526;BME280;37611;51.794;21.590;2024-01-15T02:16:18;97749.15;;;-0.13;100.00
51526;BME280;37611;51.794;21.590;2024-01-15T02:20:20;97750.61;;;-0.13;100.00
51526;BME280;37611;51.794;21.590;2024-01-15T02:24:22;97741.78;;;-0.12;100.00
51526;BME280;37611;51.794;21.590;2024-01-15T02:28:24;97728.16;;;-0.13;100.00
51526;BME280;37611;51.794;21.590;2024-01-15T02:32:26;97730.30;;;-0.16;100.00
51526;BME280;37611;51.794;21.590;2024-01-15T02:36:28;97722.87;;;-0.16;100.00
51526;BME280;37611;51.794;21.590;2024-01-15T02:40:29;97724.30;;;-0.14;100.00
51526;BME280;37611;51.794;21.590;2024-01-15T02:44:31;97715.17;;;-0.14;100.00
51526;BME280;37611;51.794;21.590;2024-01-15T02:48:33;97707.01;;;-0.13;100.00
51526;BME280;37611;51.794;21.590;2024-01-15T02:52:36;97704.77;;;-0.15;100.00
51526;BME280;37611;51.794;21.590;2024-01-15T02:56:38;97697.48;;;-0.16;100.00
51526;BME280;37611;51.794;21.590;2024-01-15T03:00:40;97697.02;;;-0.15;100.00
51526;BME280;37611;51.794;21.590;2024-01-15T03:04:45;97692.47;;;-0.14;100.00
51526;BME280;37611;51.794;21.590;2024-01-15T03:08:47;97687.84;;;-0.12;100.00
51526;BME280;37611;51.794;21.590;2024-01-15T03:12:49;97685.39;;;-0.12;100.00
51526;BME280;37611;51.794;21.590;2024-01-15T03:16:51;97678.80;;;-0.11;100.00
51526;BME280;37611;51.794;21.590;2024-01-15T03:20:53;97674.50;;;-0.10;100.00
51526;BME280;37611;51.794;21.590;2024-01-15T03:24:56;97662.20;;;-0.10;100.00
51526;BME280;37611;51.794;21.590;2024-01-15T03:28:58;97646.90;;;-0.11;100.00
51526;BME280;37611;51.794;21.590;2024-01-15T03:33:00;97642.73;;;-0.12;100.00
51526;BME280;37611;51.794;21.590;2024-01-15T03:37:02;97629.91;;;-0.13;100.00
51526;BME280;37611;51.794;21.590;2024-01-15T03:41:05;97625.01;;;-0.14;100.00
51526;BME280;37611;51.794;21.590;2024-01-15T03:45:07;97631.60;;;-0.16;100.00
51526;BME280;37611;51.794;21.590;2024-01-15T03:49:09;97625.94;;;-0.16;100.00
51526;BME280;37611;51.794;21.590;2024-01-15T03:53:10;97622.05;;;-0.23;100.00
51526;BME280;37611;51.794;21.590;2024-01-15T03:57:12;97613.96;;;-0.28;100.00
51526;BME280;37611;51.794;21.590;2024-01-15T04:01:14;97602.08;;;-0.32;100.00
51526;BME280;37611;51.794;21.590;2024-01-15T04:05:16;97594.31;;;-0.35;100.00
51526;BME280;37611;51.794;21.590;2024-01-15T04:09:17;97591.39;;;-0.37;100.00
51526;BME280;37611;51.794;21.590;2024-01-15T04:13:19;97577.55;;;-0.38;100.00
51526;BME280;37611;51.794;21.590;2024-01-15T04:17:21;97579.55;;;-0.41;100.00
51526;BME280;37611;51.794;21.590;2024-01-15T04:21:23;97582.13;;;-0.41;100.00
51526;BME280;37611;51.794;21.590;2024-01-15T04:25:25;97582.02;;;-0.40;100.00
51526;BME280;37611;51.794;21.590;2024-01-15T04:29:27;97577.80;;;-0.39;100.00
51526;BME280;37611;51.794;21.590;2024-01-15T04:33:28;97562.52;;;-0.35;100.00
51526;BME280;37611;51.794;21.590;2024-01-15T04:37:30;97558.58;;;-0.36;100.00
51526;BME280;37611;51.794;21.590;2024-01-15T04:41:32;97557.20;;;-0.32;100.00
51526;BME280;37611;51.794;21.590;2024-01-15T04:45:34;97551.79;;;-0.31;100.00
51526;BME280;37611;51.794;21.590;2024-01-15T04:49:36;97546.50;;;-0.29;100.00
51526;BME280;37611;51.794;21.590;2024-01-15T04:53:38;97540.35;;;-0.32;100.00
51526;BME280;37611;51.794;21.590;2024-01-15T04:57:40;97535.17;;;-0.39;100.00
51526;BME280;37611;51.794;21.590;2024-01-15T05:01:42;97527.95;;;-0.41;100.00
51526;BME280;37611;51.794;21.590;2024-01-15T05:05:44;97523.12;;;-0.39;100.00
51526;BME280;37611;51.794;21.590;2024-01-15T05:09:45;97520.30;;;-0.34;100.00
51526;BME280;37611;51.794;21.590;2024-01-15T05:13:47;97523.89;;;-0.33;100.00
51526;BME280;37611;51.794;21.590;2024-01-15T05:17:49;97520.73;;;-0.26;100.00
51526;BME280;37611;51.794;21.590;2024-01-15T05:21:51;97523.88;;;-0.27;100.00
51526;BME280;37611;51.794;21.590;2024-01-15T05:25:53;97525.54;;;-0.30;100.00
51526;BME280;37611;51.794;21.590;2024-01-15T05:29:54;97515.66;;;-0.34;100.00
51526;BME280;37611;51.794;21.590;2024-01-15T05:33:56;97515.71;;;-0.40;100.00
51526;BME280;37611;51.794;21.590;2024-01-15T05:37:58;97511.69;;;-0.46;100.00
51526;BME280;37611;51.794;21.590;2024-01-15T05:42:00;97506.90;;;-0.53;100.00
51526;BME280;37611;51.794;21.590;2024-01-15T05:46:02;97509.46;;;-0.56;100.00
51526;BME280;37611;51.794;21.590;2024-01-15T05:50:05;97513.98;;;-0.57;100.00
51526;BME280;37611;51.794;21.590;2024-01-15T05:54:08;97517.06;;;-0.58;100.00
51526;BME280;37611;51.794;21.590;2024-01-15T05:58:10;97510.47;;;-0.58;100.00
51526;BME280;37611;51.794;21.590;2024-01-15T06:02:12;97508.92;;;-0.56;100.00
51526;BME280;37611;51.794;21.590;2024-01-15T06:06:14;97503.11;;;-0.54;100.00
51526;BME280;37611;51.794;21.590;2024-01-15T06:10:15;97502.14;;;-0.55;100.00
51526;BME280;37611;51.794;21.590;2024-01-15T06:14:17;97502.51;;;-0.57;100.00
51526;BME280;37611;51.794;21.590;2024-01-15T06:18:19;97502.20;;;-0.58;100.00
51526;BME280;37611;51.794;21.590;2024-01-15T06:22:21;97497.85;;;-0.59;100.00
51526;BME280;37611;51.794;21.590;2024-01-15T06:26:23;97496.35;;;-0.59;100.00
51526;BME280;37611;51.794;21.590;2024-01-15T06:30:25;97497.09;;;-0.56;100.00
51526;BME280;37611;51.794;21.590;2024-01-15T06:34:26;97501.48;;;-0.54;100.00
51526;BME280;37611;51.794;21.590;2024-01-15T06:38:28;97498.84;;;-0.53;100.00
51526;BME280;37611;51.794;21.590;2024-01-15T06:42:30;97493.98;;;-0.51;100.00
51526;BME280;37611;51.794;21.590;2024-01-15T06:46:32;97485.73;;;-0.51;100.00
51526;BME280;37611;51.794;21.590;2024-01-15T06:50:33;97484.19;;;-0.49;100.00
51526;BME280;37611;51.794;21.590;2024-01-15T06:54:35;97478.83;;;-0.47;100.00
51526;BME280;37611;51.794;21.590;2024-01-15T06:58:37;97475.90;;;-0.46;100.00
51526;BME280;37611;51.794;21.590;2024-01-15T07:02:39;97472.69;;;-0.49;100.00
51526;BME280;37611;51.794;21.590;2024-01-15T07:06:41;97474.73;;;-0.45;100.00
51526;BME280;37611;51.794;21.590;2024-01-15T07:10:43;97483.21;;;-0.42;100.00
51526;BME280;37611;51.794;21.590;2024-01-15T07:14:45;97481.86;;;-0.40;100.00
51526;BME280;37611;51.794;21.590;2024-01-15T07:18:46;97488.77;;;-0.41;100.00
51526;BME280;37611;51.794;21.590;2024-01-15T07:22:48;97494.02;;;-0.38;100.00
51526;BME280;37611;51.794;21.590;2024-01-15T07:26:50;97500.77;;;-0.39;100.00
51526;BME280;37611;51.794;21.590;2024-01-15T07:30:52;97499.23;;;-0.39;100.00
51526;BME280;37611;51.794;21.590;2024-01-15T07:34:54;97500.80;;;-0.39;100.00
51526;BME280;37611;51.794;21.590;2024-01-15T07:38:55;97496.81;;;-0.40;100.00
51526;BME280;37611;51.794;21.590;2024-01-15T07:42:57;97494.16;;;-0.39;100.00
51526;BME280;37611;51.794;21.590;2024-01-15T07:46:59;97492.03;;;-0.39;100.00
51526;BME280;37611;51.794;21.590;2024-01-15T07:51:01;97490.66;;;-0.34;100.00
51526;BME280;37611;51.794;21.590;2024-01-15T07:55:04;97492.43;;;-0.33;100.00
51526;BME280;37611;51.794;21.590;2024-01-15T07:59:06;97487.20;;;-0.32;100.00
51526;BME280;37611;51.794;21.590;2024-01-15T08:03:08;97483.96;;;-0.34;100.00
51526;BME280;37611;51.794;21.590;2024-01-15T08:07:10;97481.13;;;-0.38;100.00
51526;BME280;37611;51.794;21.590;2024-01-15T08:11:12;97488.11;;;-0.45;100.00
51526;BME280;37611;51.794;21.590;2024-01-15T08:15:14;97486.50;;;-0.50;100.00
51526;BME280;37611;51.794;21.590;2024-01-15T08:19:16;97481.85;;;-0.48;100.00
51526;BME280;37611;51.794;21.590;2024-01-15T08:23:17;97482.58;;;-0.46;100.00
51526;BME280;37611;51.794;21.590;2024-01-15T08:27:19;97478.19;;;-0.45;100.00
51526;BME280;37611;51.794;21.590;2024-01-15T08:31:21;97484.09;;;-0.44;100.00
51526;BME280;37611;51.794;21.590;2024-01-15T08:35:23;97484.79;;;-0.42;100.00
51526;BME280;37611;51.794;21.590;2024-01-15T08:39:26;97481.46;;;-0.38;100.00
51526;BME280;37611;51.794;21.590;2024-01-15T08:43:28;97479.98;;;-0.35;100.00
51526;BME280;37611;51.794;21.590;2024-01-15T08:47:31;97481.11;;;-0.33;100.00
51526;BME280;37611;51.794;21.590;2024-01-15T08:51:33;97478.56;;;-0.30;100.00
51526;BME280;37611;51.794;21.590;2024-01-15T08:55:35;97483.16;;;-0.31;100.00
51526;BME280;37611;51.794;21.590;2024-01-15T08:59:36;97483.88;;;-0.29;100.00
51526;BME280;37611;51.794;21.590;2024-01-15T09:03:40;97489.91;;;-0.36;100.00
51526;BME280;37611;51.794;21.590;2024-01-15T09:07:45;97484.84;;;-0.34;100.00
51526;BME280;37611;51.794;21.590;2024-01-15T09:11:47;97489.98;;;-0.28;100.00
51526;BME280;37611;51.794;21.590;2024-01-15T09:15:49;97485.09;;;-0.28;100.00
51526;BME280;37611;51.794;21.590;2024-01-15T09:19:51;97484.39;;;-0.27;100.00
51526;BME280;37611;51.794;21.590;2024-01-15T09:23:53;97487.85;;;-0.24;100.00
51526;BME280;37611;51.794;21.590;2024-01-15T09:27:55;97487.31;;;-0.26;100.00
51526;BME280;37611;51.794;21.590;2024-01-15T09:31:56;97489.09;;;-0.24;100.00
51526;BME280;37611;51.794;21.590;2024-01-15T09:36:02;97494.63;;;-0.19;100.00
51526;BME280;37611;51.794;21.590;2024-01-15T09:40:06;97492.21;;;0.01;100.00
51526;BME280;37611;51.794;21.590;2024-01-15T09:44:10;97487.42;;;0.13;100.00
51526;BME280;37611;51.794;21.590;2024-01-15T09:48:13;97483.59;;;0.22;100.00
51526;BME280;37611;51.794;21.590;2024-01-15T09:52:16;97481.23;;;0.38;100.00
51526;BME280;37611;51.794;21.590;2024-01-15T09:56:20;97475.73;;;0.48;100.00
51526;BME280;37611;51.794;21.590;2024-01-15T10:00:22;97475.61;;;0.76;100.00
51526;BME280;37611;51.794;21.590;2024-01-15T10:04:24;97472.77;;;0.83;100.00
51526;BME280;37611;51.794;21.590;2024-01-15T10:08:26;97476.20;;;1.01;100.00
51526;BME280;37611;51.794;21.590;2024-01-15T10:12:28;97471.79;;;1.15;100.00
51526;BME280;37611;51.794;21.590;2024-01-15T10:16:30;97482.90;;;1.14;100.00
51526;BME280;37611;51.794;21.590;2024-01-15T10:20:32;97482.02;;;1.13;100.00
51526;BME280;37611;51.794;21.590;2024-01-15T10:24:36;97482.55;;;1.04;100.00
51526;BME280;37611;51.794;21.590;2024-01-15T10:28:38;97472.54;;;1.05;100.00
51526;BME280;37611;51.794;21.590;2024-01-15T10:32:39;97471.86;;;0.99;100.00
51526;BME280;37611;51.794;21.590;2024-01-15T10:36:45;97467.32;;;1.00;100.00
51526;BME280;37611;51.794;21.590;2024-01-15T10:40:53;97464.43;;;1.05;100.00
51526;BME280;37611;51.794;21.590;2024-01-15T10:44:55;97462.45;;;1.17;100.00
51526;BME280;37611;51.794;21.590;2024-01-15T10:48:57;97458.39;;;1.27;100.00
51526;BME280;37611;51.794;21.590;2024-01-15T10:52:59;97457.91;;;1.28;100.00
51526;BME280;37611;51.794;21.590;2024-01-15T10:57:02;97459.97;;;1.23;100.00
51526;BME280;37611;51.794;21.590;2024-01-15T11:01:04;97461.89;;;1.21;100.00
51526;BME280;37611;51.794;21.590;2024-01-15T11:05:06;97456.62;;;1.22;100.00
51526;BME280;37611;51.794;21.590;2024-01-15T11:09:08;97462.84;;;1.17;100.00
51526;BME280;37611;51.794;21.590;2024-01-15T11:13:15;97461.20;;;1.11;100.00
51526;BME280;37611;51.794;21.590;2024-01-15T11:17:21;97464.31;;;1.06;100.00
51526;BME280;37611;51.794;21.590;2024-01-15T11:21:25;97464.85;;;1.04;100.00
51526;BME280;37611;51.794;21.590;2024-01-15T11:25:34;97459.27;;;1.06;100.00
51526;BME280;37611;51.794;21.590;2024-01-15T11:29:38;97457.96;;;1.12;100.00
51526;BME280;37611;51.794;21.590;2024-01-15T11:33:48;97452.73;;;1.13;100.00
51526;BME280;37611;51.794;21.590;2024-01-15T11:41:57;97442.46;;;1.31;100.00
51526;BME280;37611;51.794;21.590;2024-01-15T11:46:01;97443.45;;;1.38;100.00
51526;BME280;37611;51.794;21.590;2024-01-15T11:50:04;97436.88;;;1.53;100.00
51526;BME280;37611;51.794;21.590;2024-01-15T11:54:09;97443.61;;;1.57;100.00
51526;BME280;37611;51.794;21.590;2024-01-15T11:58:14;97447.37;;;1.60;100.00
51526;BME280;37611;51.794;21.590;2024-01-15T12:02:15;97449.00;;;1.61;100.00
51526;BME280;37611;51.794;21.590;2024-01-15T12:06:17;97445.84;;;1.67;100.00
51526;BME280;37611;51.794;21.590;2024-01-15T12:10:20;97446.06;;;1.68;100.00
51526;BME280;37611;51.794;21.590;2024-01-15T12:14:23;97438.59;;;1.68;100.00
51526;BME280;37611;51.794;21.590;2024-01-15T12:18:25;97447.47;;;1.56;100.00
51526;BME280;37611;51.794;21.590;2024-01-15T12:22:27;97455.07;;;1.49;100.00
51526;BME280;37611;51.794;21.590;2024-01-15T12:26:30;97455.32;;;1.43;100.00
51526;BME280;37611;51.794;21.590;2024-01-15T12:30:33;97458.47;;;1.33;100.00
51526;BME280;37611;51.794;21.590;2024-01-15T12:34:37;97456.42;;;1.26;100.00
51526;BME280;37611;51.794;21.590;2024-01-15T12:38:39;97454.27;;;1.23;100.00
51526;BME280;37611;51.794;21.590;2024-01-15T12:42:41;97450.59;;;1.22;100.00
51526;BME280;37611;51.794;21.590;2024-01-15T12:46:43;97453.88;;;1.22;100.00
51526;BME280;37611;51.794;21.590;2024-01-15T12:50:45;97452.83;;;1.17;100.00
51526;BME280;37611;51.794;21.590;2024-01-15T12:54:48;97457.63;;;1.07;100.00
51526;BME280;37611;51.794;21.590;2024-01-15T12:58:51;97464.38;;;0.92;100.00
51526;BME280;37611;51.794;21.590;2024-01-15T13:02:52;97457.58;;;0.78;100.00
51526;BME280;37611;51.794;21.590;2024-01-15T13:06:55;97455.53;;;0.71;100.00
51526;BME280;37611;51.794;21.590;2024-01-15T13:10:57;97454.57;;;0.67;100.00
51526;BME280;37611;51.794;21.590;2024-01-15T13:14:59;97453.67;;;0.69;100.00
51526;BME280;37611;51.794;21.590;2024-01-15T13:19:01;97446.84;;;0.70;100.00
51526;BME280;37611;51.794;21.590;2024-01-15T13:23:03;97441.80;;;0.70;100.00
51526;BME280;37611;51.794;21.590;2024-01-15T13:27:05;97440.79;;;0.67;100.00
51526;BME280;37611;51.794;21.590;2024-01-15T13:31:08;97441.71;;;0.61;100.00
51526;BME280;37611;51.794;21.590;2024-01-15T13:35:10;97439.58;;;0.57;100.00
51526;BME280;37611;51.794;21.590;2024-01-15T13:39:14;97435.55;;;0.49;100.00
51526;BME280;37611;51.794;21.590;2024-01-15T13:43:20;97434.45;;;0.41;100.00
51526;BME280;37611;51.794;21.590;2024-01-15T13:47:22;97446.48;;;0.32;100.00
51526;BME280;37611;51.794;21.590;2024-01-15T13:51:24;97447.50;;;0.29;100.00
51526;BME280;37611;51.794;21.590;2024-01-15T13:55:26;97445.13;;;0.32;100.00
51526;BME280;37611;51.794;21.590;2024-01-15T13:59:28;97460.98;;;0.32;100.00
51526;BME280;37611;51.794;21.590;2024-01-15T14:03:30;97463.94;;;0.33;100.00
51526;BME280;37611;51.794;21.590;2024-01-15T14:07:31;97468.16;;;0.38;100.00
51526;BME280;37611;51.794;21.590;2024-01-15T14:11:34;97468.25;;;0.42;100.00
51526;BME280;37611;51.794;21.590;2024-01-15T14:15:36;97470.73;;;0.44;100.00
51526;BME280;37611;51.794;21.590;2024-01-15T14:19:38;97474.66;;;0.41;100.00
51526;BME280;37611;51.794;21.590;2024-01-15T14:23:40;97474.54;;;0.41;100.00
51526;BME280;37611;51.794;21.590;2024-01-15T14:27:41;97472.38;;;0.33;100.00
51526;BME280;37611;51.794;21.590;2024-01-15T14:31:43;97474.27;;;0.28;100.00
51526;BME280;37611;51.794;21.590;2024-01-15T14:35:45;97477.92;;;0.20;100.00
51526;BME280;37611;51.794;21.590;2024-01-15T14:39:47;97481.94;;;0.21;100.00
51526;BME280;37611;51.794;21.590;2024-01-15T14:43:48;97478.52;;;0.19;100.00
51526;BME280;37611;51.794;21.590;2024-01-15T14:47:50;97479.79;;;0.15;100.00
51526;BME280;37611;51.794;21.590;2024-01-15T14:51:52;97483.90;;;0.17;100.00
51526;BME280;37611;51.794;21.590;2024-01-15T14:55:54;97487.52;;;0.17;100.00
51526;BME280;37611;51.794;21.590;2024-01-15T14:59:56;97484.02;;;0.15;100.00
51526;BME280;37611;51.794;21.590;2024-01-15T15:03:58;97492.11;;;0.11;100.00
51526;BME280;37611;51.794;21.590;2024-01-15T15:08:00;97490.30;;;0.05;100.00
51526;BME280;37611;51.794;21.590;2024-01-15T15:12:02;97495.42;;;-0.01;100.00
51526;BME280;37611;51.794;21.590;2024-01-15T15:16:06;97497.78;;;0.00;100.00
51526;BME280;37611;51.794;21.590;2024-01-15T15:20:09;97500.15;;;-0.05;100.00
51526;BME280;37611;51.794;21.590;2024-01-15T15:24:11;97493.27;;;-0.07;100.00
51526;BME280;37611;51.794;21.590;2024-01-15T15:28:13;97484.34;;;-0.09;100.00
51526;BME280;37611;51.794;21.590;2024-01-15T15:32:17;97492.99;;;-0.11;100.00
51526;BME280;37611;51.794;21.590;2024-01-15T15:36:19;97487.15;;;-0.09;100.00
51526;BME280;37611;51.794;21.590;2024-01-15T15:45:37;97490.67;;;-0.12;100.00
51526;BME280;37611;51.794;21.590;2024-01-15T15:49:39;97485.30;;;-0.10;100.00
51526;BME280;37611;51.794;21.590;2024-01-15T15:53:40;97483.66;;;-0.07;100.00
51526;BME280;37611;51.794;21.590;2024-01-15T15:57:43;97487.50;;;-0.06;100.00
51526;BME280;37611;51.794;21.590;2024-01-15T16:01:45;97482.52;;;-0.04;100.00
51526;BME280;37611;51.794;21.590;2024-01-15T16:05:47;97480.92;;;-0.04;100.00
51526;BME280;37611;51.794;21.590;2024-01-15T16:09:49;97480.70;;;-0.03;100.00
51526;BME280;37611;51.794;21.590;2024-01-15T16:13:50;97481.61;;;-0.02;100.00
51526;BME280;37611;51.794;21.590;2024-01-15T16:17:52;97476.23;;;0.04;100.00
51526;BME280;37611;51.794;21.590;2024-01-15T16:21:54;97475.08;;;0.04;100.00
51526;BME280;37611;51.794;21.590;2024-01-15T16:25:56;97473.46;;;0.08;100.00
51526;BME280;37611;51.794;21.590;2024-01-15T16:29:58;97467.89;;;0.09;100.00
51526;BME280;37611;51.794;21.590;2024-01-15T16:34:00;97464.06;;;0.09;100.00
51526;BME280;37611;51.794;21.590;2024-01-15T16:38:02;97463.93;;;0.10;100.00
51526;BME280;37611;51.794;21.590;2024-01-15T16:42:04;97471.80;;;0.09;100.00
51526;BME280;37611;51.794;21.590;2024-01-15T16:46:07;97470.67;;;0.10;100.00
51526;BME280;37611;51.794;21.590;2024-01-15T16:50:09;97470.73;;;0.07;100.00
51526;BME280;37611;51.794;21.590;2024-01-15T16:54:12;97473.39;;;0.07;100.00
51526;BME280;37611;51.794;21.590;2024-01-15T16:58:14;97471.21;;;0.05;100.00
51526;BME280;37611;51.794;21.590;2024-01-15T17:02:16;97473.47;;;0.01;100.00
51526;BME280;37611;51.794;21.590;2024-01-15T17:06:18;97468.54;;;0.00;100.00
51526;BME280;37611;51.794;21.590;2024-01-15T17:10:20;97467.42;;;-0.05;100.00
51526;BME280;37611;51.794;21.590;2024-01-15T17:14:22;97472.93;;;-0.08;100.00
51526;BME280;37611;51.794;21.590;2024-01-15T17:18:24;97474.91;;;-0.11;100.00
51526;BME280;37611;51.794;21.590;2024-01-15T17:22:26;97465.21;;;-0.12;100.00
51526;BME280;37611;51.794;21.590;2024-01-15T17:26:27;97474.63;;;-0.13;100.00
51526;BME280;37611;51.794;21.590;2024-01-15T17:30:29;97480.88;;;-0.14;100.00
51526;BME280;37611;51.794;21.590;2024-01-15T17:34:32;97474.45;;;-0.15;100.00
51526;BME280;37611;51.794;21.590;2024-01-15T17:38:34;97476.78;;;-0.14;100.00
51526;BME280;37611;51.794;21.590;2024-01-15T17:42:35;97479.98;;;-0.12;100.00
51526;BME280;37611;51.794;21.590;2024-01-15T17:46:38;97469.86;;;-0.14;100.00
51526;BME280;37611;51.794;21.590;2024-01-15T17:50:40;97485.30;;;-0.13;100.00
51526;BME280;37611;51.794;21.590;2024-01-15T17:54:41;97485.05;;;-0.13;100.00
51526;BME280;37611;51.794;21.590;2024-01-15T17:58:43;97497.52;;;-0.14;100.00
51526;BME280;37611;51.794;21.590;2024-01-15T18:13:55;97493.20;;;-0.10;100.00
51526;BME280;37611;51.794;21.590;2024-01-15T18:44:43;97476.67;;;-0.15;100.00
51526;BME280;37611;51.794;21.590;2024-01-15T18:48:47;97470.58;;;-0.18;100.00
51526;BME280;37611;51.794;21.590;2024-01-15T18:52:50;97465.42;;;-0.19;100.00
51526;BME280;37611;51.794;21.590;2024-01-15T18:56:55;97476.42;;;-0.21;100.00
51526;BME280;37611;51.794;21.590;2024-01-15T19:00:57;97474.98;;;-0.24;100.00
51526;BME280;37611;51.794;21.590;2024-01-15T19:05:00;97476.17;;;-0.24;100.00
51526;BME280;37611;51.794;21.590;2024-01-15T19:09:02;97475.17;;;-0.24;100.00
51526;BME280;37611;51.794;21.590;2024-01-15T22:02:10;97696.63;;;-1.32;100.00
51526;BME280;37611;51.794;21.590;2024-01-15T22:06:52;97707.66;;;-1.34;100.00
51526;BME280;37611;51.794;21.590;2024-01-15T22:10:54;97708.98;;;-1.33;100.00
51526;BME280;37611;51.794;21.590;2024-01-15T22:14:58;97716.33;;;-1.33;100.00
51526;BME280;37611;51.794;21.590;2024-01-15T22:19:00;97718.05;;;-1.35;100.00
51526;BME280;37611;51.794;21.590;2024-01-15T22:23:02;97728.38;;;-1.37;100.00
51526;BME280;37611;51.794;21.590;2024-01-15T22:27:05;97736.81;;;-1.37;100.00
51526;BME280;37611;51.794;21.590;2024-01-15T22:31:06;97741.80;;;-1.38;100.00
51526;BME280;37611;51.794;21.590;2024-01-15T22:35:09;97755.25;;;-1.38;100.00
51526;BME280;37611;51.794;21.590;2024-01-15T22:39:12;97760.52;;;-1.43;100.00
51526;BME280;37611;51.794;21.590;2024-01-15T22:43:15;97768.40;;;-1.45;100.00
51526;BME280;37611;51.794;21.590;2024-01-15T22:47:17;97777.37;;;-1.46;100.00
51526;BME280;37611;51.794;21.590;2024-01-15T22:51:19;97776.14;;;-1.43;100.00
51526;BME280;37611;51.794;21.590;2024-01-15T22:55:21;97782.74;;;-1.44;100.00
51526;BME280;37611;51.794;21.590;2024-01-15T22:59:22;97793.48;;;-1.43;100.00
51526;BME280;37611;51.794;21.590;2024-01-15T23:03:24;97794.30;;;-1.45;100.00
51526;BME280;37611;51.794;21.590;2024-01-15T23:07:26;97794.98;;;-1.47;100.00
51526;BME280;37611;51.794;21.590;2024-01-15T23:11:28;97806.65;;;-1.49;100.00
51526;BME280;37611;51.794;21.590;2024-01-15T23:15:30;97811.34;;;-1.52;100.00
51526;BME280;37611;51.794;21.590;2024-01-15T23:19:32;97821.58;;;-1.51;100.00
51526;BME280;37611;51.794;21.590;2024-01-15T23:23:34;97825.45;;;-1.51;100.00
51526;BME280;37611;51.794;21.590;2024-01-15T23:27:37;97826.03;;;-1.49;100.00
51526;BME280;37611;51.794;21.590;2024-01-15T23:31:39;97827.25;;;-1.49;100.00
51526;BME280;37611;51.794;21.590;2024-01-15T23:35:42;97841.23;;;-1.54;100.00
51526;BME280;37611;51.794;21.590;2024-01-15T23:39:44;97838.80;;;-1.60;100.00
51526;BME280;37611;51.794;21.590;2024-01-15T23:43:47;97844.50;;;-1.70;99.72
51526;BME280;37611;51.794;21.590;2024-01-15T23:47:50;97850.15;;;-1.79;99.75
51526;BME280;37611;51.794;21.590;2024-01-15T23:51:52;97852.40;;;-1.83;99.97
51526;BME280;37611;51.794;21.590;2024-01-15T23:55:54;97852.20;;;-1.81;100.00
51526;BME280;37611;51.794;21.590;2024-01-15T23:59:58;97858.13;;;-1.80;99.96
